sensor_id;sensor_type;location;lat;lon;timestamp;temperature;humidity
52189;DHT22;38162;45.926;13.608;2023-03-05T00:02:07;7.90;59.80
52189;DHT22;38162;45.926;13.608;2023-03-05T00:04:33;8.00;59.70
52189;DHT22;38162;45.926;13.608;2023-03-05T00:06:59;7.90;59.60
52189;DHT22;38162;45.926;13.608;2023-03-05T00:09:25;7.90;59.80
52189;DHT22;38162;45.926;13.608;2023-03-05T00:11:52;7.90;59.80
52189;DHT22;38162;45.926;13.608;2023-03-05T00:14:18;7.90;59.60
52189;DHT22;38162;45.926;13.608;2023-03-05T00:16:44;7.80;59.60
52189;DHT22;38162;45.926;13.608;2023-03-05T00:19:10;7.80;59.80
52189;DHT22;38162;45.926;13.608;2023-03-05T00:21:38;7.80;60.00
52189;DHT22;38162;45.926;13.608;2023-03-05T00:24:07;7.80;60.30
52189;DHT22;38162;45.926;13.608;2023-03-05T00:26:35;7.80;60.60
52189;DHT22;38162;45.926;13.608;2023-03-05T00:29:02;7.80;60.40
52189;DHT22;38162;45.926;13.608;2023-03-05T00:31:29;7.80;59.60
52189;DHT22;38162;45.926;13.608;2023-03-05T00:33:58;7.80;59.50
52189;DHT22;38162;45.926;13.608;2023-03-05T00:36:24;7.80;59.40
52189;DHT22;38162;45.926;13.608;2023-03-05T00:38:50;7.70;59.60
52189;DHT22;38162;45.926;13.608;2023-03-05T00:41:16;7.70;59.70
52189;DHT22;38162;45.926;13.608;2023-03-05T00:43:42;7.60;59.60
52189;DHT22;38162;45.926;13.608;2023-03-05T00:46:08;7.60;59.80
52189;DHT22;38162;45.926;13.608;2023-03-05T00:48:34;7.50;59.90
52189;DHT22;38162;45.926;13.608;2023-03-05T00:51:00;7.50;59.80
52189;DHT22;38162;45.926;13.608;2023-03-05T00:53:26;7.50;60.00
52189;DHT22;38162;45.926;13.608;2023-03-05T00:55:51;7.40;59.90
52189;DHT22;38162;45.926;13.608;2023-03-05T00:58:17;7.40;60.40
52189;DHT22;38162;45.926;13.608;2023-03-05T01:00:43;7.30;60.40
52189;DHT22;38162;45.926;13.608;2023-03-05T01:03:08;7.30;60.40
52189;DHT22;38162;45.926;13.608;2023-03-05T01:05:34;7.30;60.60
52189;DHT22;38162;45.926;13.608;2023-03-05T01:08:00;7.30;60.90
52189;DHT22;38162;45.926;13.608;2023-03-05T01:10:26;7.20;60.80
52189;DHT22;38162;45.926;13.608;2023-03-05T01:12:54;7.20;61.00
52189;DHT22;38162;45.926;13.608;2023-03-05T01:15:22;7.10;61.60
52189;DHT22;38162;45.926;13.608;2023-03-05T01:17:48;7.10;60.90
52189;DHT22;38162;45.926;13.608;2023-03-05T01:20:15;7.10;61.10
52189;DHT22;38162;45.926;13.608;2023-03-05T01:22:41;7.10;61.40
52189;DHT22;38162;45.926;13.608;2023-03-05T01:25:08;7.00;61.40
52189;DHT22;38162;45.926;13.608;2023-03-05T01:27:34;7.00;61.50
52189;DHT22;38162;45.926;13.608;2023-03-05T01:30:00;7.00;61.70
52189;DHT22;38162;45.926;13.608;2023-03-05T01:32:25;7.00;61.70
52189;DHT22;38162;45.926;13.608;2023-03-05T01:34:51;7.00;62.00
52189;DHT22;38162;45.926;13.608;2023-03-05T01:37:17;7.00;62.10
52189;DHT22;38162;45.926;13.608;2023-03-05T01:39:43;6.90;62.10
52189;DHT22;38162;45.926;13.608;2023-03-05T01:42:08;6.90;62.10
52189;DHT22;38162;45.926;13.608;2023-03-05T01:44:34;6.90;62.20
52189;DHT22;38162;45.926;13.608;2023-03-05T01:47:00;6.90;62.30
52189;DHT22;38162;45.926;13.608;2023-03-05T01:49:29;6.90;62.10
52189;DHT22;38162;45.926;13.608;2023-03-05T01:52:01;6.90;62.40
52189;DHT22;38162;45.926;13.608;2023-03-05T01:54:40;6.90;62.40
52189;DHT22;38162;45.926;13.608;2023-03-05T01:57:22;6.90;62.40
52189;DHT22;38162;45.926;13.608;2023-03-05T01:59:51;6.90;62.30
52189;DHT22;38162;45.926;13.608;2023-03-05T02:02:18;6.90;62.30
52189;DHT22;38162;45.926;13.608;2023-03-05T02:04:50;6.80;62.10
52189;DHT22;38162;45.926;13.608;2023-03-05T02:07:17;6.80;62.30
52189;DHT22;38162;45.926;13.608;2023-03-05T02:09:43;6.80;62.40
52189;DHT22;38162;45.926;13.608;2023-03-05T02:12:10;6.80;62.70
52189;DHT22;38162;45.926;13.608;2023-03-05T02:14:37;6.80;62.90
52189;DHT22;38162;45.926;13.608;2023-03-05T02:17:04;6.80;62.90
52189;DHT22;38162;45.926;13.608;2023-03-05T02:19:46;6.80;62.80
52189;DHT22;38162;45.926;13.608;2023-03-05T02:22:16;6.80;62.60
52189;DHT22;38162;45.926;13.608;2023-03-05T02:24:43;6.80;62.50
52189;DHT22;38162;45.926;13.608;2023-03-05T02:27:09;6.80;62.70
52189;DHT22;38162;45.926;13.608;2023-03-05T02:29:38;6.80;62.70
52189;DHT22;38162;45.926;13.608;2023-03-05T02:32:05;6.70;62.80
52189;DHT22;38162;45.926;13.608;2023-03-05T02:34:31;6.70;62.90
52189;DHT22;38162;45.926;13.608;2023-03-05T02:36:57;6.70;62.90
52189;DHT22;38162;45.926;13.608;2023-03-05T02:39:22;6.70;62.80
52189;DHT22;38162;45.926;13.608;2023-03-05T02:41:48;6.70;62.80
52189;DHT22;38162;45.926;13.608;2023-03-05T02:44:14;6.60;62.80
52189;DHT22;38162;45.926;13.608;2023-03-05T02:46:40;6.60;62.90
52189;DHT22;38162;45.926;13.608;2023-03-05T02:49:05;6.60;62.80
52189;DHT22;38162;45.926;13.608;2023-03-05T02:51:31;6.50;62.90
52189;DHT22;38162;45.926;13.608;2023-03-05T02:53:57;6.50;63.00
52189;DHT22;38162;45.926;13.608;2023-03-05T02:56:22;6.50;63.00
52189;DHT22;38162;45.926;13.608;2023-03-05T02:58:48;6.50;62.90
52189;DHT22;38162;45.926;13.608;2023-03-05T03:01:14;6.40;62.70
52189;DHT22;38162;45.926;13.608;2023-03-05T03:03:39;6.30;62.80
52189;DHT22;38162;45.926;13.608;2023-03-05T03:06:05;6.30;62.90
52189;DHT22;38162;45.926;13.608;2023-03-05T03:08:31;6.20;63.10
52189;DHT22;38162;45.926;13.608;2023-03-05T03:11:04;6.20;63.40
52189;DHT22;38162;45.926;13.608;2023-03-05T03:13:29;6.20;63.50
52189;DHT22;38162;45.926;13.608;2023-03-05T03:16:07;6.10;63.80
52189;DHT22;38162;45.926;13.608;2023-03-05T03:18:33;6.10;64.10
52189;DHT22;38162;45.926;13.608;2023-03-05T03:20:59;6.10;64.30
52189;DHT22;38162;45.926;13.608;2023-03-05T03:23:25;6.10;64.10
52189;DHT22;38162;45.926;13.608;2023-03-05T03:25:51;6.10;64.40
52189;DHT22;38162;45.926;13.608;2023-03-05T03:28:17;6.00;64.30
52189;DHT22;38162;45.926;13.608;2023-03-05T03:30:42;6.00;64.60
52189;DHT22;38162;45.926;13.608;2023-03-05T03:33:08;6.10;64.90
52189;DHT22;38162;45.926;13.608;2023-03-05T03:35:34;6.10;65.20
52189;DHT22;38162;45.926;13.608;2023-03-05T03:38:00;6.00;65.10
52189;DHT22;38162;45.926;13.608;2023-03-05T03:40:26;6.00;65.10
52189;DHT22;38162;45.926;13.608;2023-03-05T03:42:52;6.00;65.10
52189;DHT22;38162;45.926;13.608;2023-03-05T03:45:18;6.00;65.20
52189;DHT22;38162;45.926;13.608;2023-03-05T03:47:47;6.00;65.10
52189;DHT22;38162;45.926;13.608;2023-03-05T03:50:13;6.00;65.00
52189;DHT22;38162;45.926;13.608;2023-03-05T03:52:39;6.00;65.00
52189;DHT22;38162;45.926;13.608;2023-03-05T03:55:05;5.90;65.00
52189;DHT22;38162;45.926;13.608;2023-03-05T03:57:31;6.00;65.30
52189;DHT22;38162;45.926;13.608;2023-03-05T03:59:58;5.90;65.40
52189;DHT22;38162;45.926;13.608;2023-03-05T04:02:24;5.90;64.80
52189;DHT22;38162;45.926;13.608;2023-03-05T04:04:50;5.90;64.80
52189;DHT22;38162;45.926;13.608;2023-03-05T04:07:17;5.80;64.80
52189;DHT22;38162;45.926;13.608;2023-03-05T04:09:43;5.80;64.80
52189;DHT22;38162;45.926;13.608;2023-03-05T04:12:09;5.80;65.40
52189;DHT22;38162;45.926;13.608;2023-03-05T04:14:34;5.70;65.50
52189;DHT22;38162;45.926;13.608;2023-03-05T04:17:00;5.70;65.10
52189;DHT22;38162;45.926;13.608;2023-03-05T04:19:26;5.70;65.50
52189;DHT22;38162;45.926;13.608;2023-03-05T04:21:56;5.70;65.90
52189;DHT22;38162;45.926;13.608;2023-03-05T04:24:22;5.70;66.50
52189;DHT22;38162;45.926;13.608;2023-03-05T04:26:47;5.70;66.80
52189;DHT22;38162;45.926;13.608;2023-03-05T04:29:13;5.80;67.20
52189;DHT22;38162;45.926;13.608;2023-03-05T04:31:39;5.80;67.50
52189;DHT22;38162;45.926;13.608;2023-03-05T04:34:05;5.80;66.70
52189;DHT22;38162;45.926;13.608;2023-03-05T04:36:30;5.80;66.50
52189;DHT22;38162;45.926;13.608;2023-03-05T04:38:56;5.80;66.50
52189;DHT22;38162;45.926;13.608;2023-03-05T04:41:22;5.80;65.90
52189;DHT22;38162;45.926;13.608;2023-03-05T04:43:48;5.70;66.00
52189;DHT22;38162;45.926;13.608;2023-03-05T04:46:13;5.70;65.70
52189;DHT22;38162;45.926;13.608;2023-03-05T04:48:39;5.60;66.30
52189;DHT22;38162;45.926;13.608;2023-03-05T04:51:05;5.60;66.40
52189;DHT22;38162;45.926;13.608;2023-03-05T04:53:30;5.60;66.60
52189;DHT22;38162;45.926;13.608;2023-03-05T04:55:56;5.60;66.30
52189;DHT22;38162;45.926;13.608;2023-03-05T04:58:22;5.50;66.10
52189;DHT22;38162;45.926;13.608;2023-03-05T05:00:48;5.50;66.30
52189;DHT22;38162;45.926;13.608;2023-03-05T05:03:14;5.40;66.50
52189;DHT22;38162;45.926;13.608;2023-03-05T05:05:40;5.40;66.30
52189;DHT22;38162;45.926;13.608;2023-03-05T05:08:05;5.40;66.10
52189;DHT22;38162;45.926;13.608;2023-03-05T05:10:31;5.40;66.10
52189;DHT22;38162;45.926;13.608;2023-03-05T05:12:57;5.30;66.80
52189;DHT22;38162;45.926;13.608;2023-03-05T05:15:23;5.30;66.80
52189;DHT22;38162;45.926;13.608;2023-03-05T05:17:48;5.30;67.10
52189;DHT22;38162;45.926;13.608;2023-03-05T05:20:15;5.20;67.00
52189;DHT22;38162;45.926;13.608;2023-03-05T05:22:41;5.20;67.20
52189;DHT22;38162;45.926;13.608;2023-03-05T05:25:09;5.20;67.60
52189;DHT22;38162;45.926;13.608;2023-03-05T05:27:35;5.20;67.60
52189;DHT22;38162;45.926;13.608;2023-03-05T05:30:01;5.20;68.00
52189;DHT22;38162;45.926;13.608;2023-03-05T05:32:27;5.20;68.70
52189;DHT22;38162;45.926;13.608;2023-03-05T05:34:57;5.30;69.10
52189;DHT22;38162;45.926;13.608;2023-03-05T05:37:23;5.30;69.60
52189;DHT22;38162;45.926;13.608;2023-03-05T05:39:49;5.40;70.50
52189;DHT22;38162;45.926;13.608;2023-03-05T05:42:20;5.50;70.10
52189;DHT22;38162;45.926;13.608;2023-03-05T05:44:46;5.50;70.00
52189;DHT22;38162;45.926;13.608;2023-03-05T05:47:14;5.60;70.20
52189;DHT22;38162;45.926;13.608;2023-03-05T05:49:40;5.70;70.20
52189;DHT22;38162;45.926;13.608;2023-03-05T05:52:05;5.80;70.20
52189;DHT22;38162;45.926;13.608;2023-03-05T05:54:31;5.90;70.10
52189;DHT22;38162;45.926;13.608;2023-03-05T05:56:57;6.00;70.00
52189;DHT22;38162;45.926;13.608;2023-03-05T05:59:23;6.10;70.10
52189;DHT22;38162;45.926;13.608;2023-03-05T06:01:49;6.20;70.00
52189;DHT22;38162;45.926;13.608;2023-03-05T06:04:15;6.30;69.90
52189;DHT22;38162;45.926;13.608;2023-03-05T06:06:41;6.30;69.60
52189;DHT22;38162;45.926;13.608;2023-03-05T06:09:06;6.40;69.60
52189;DHT22;38162;45.926;13.608;2023-03-05T06:11:32;6.40;69.50
52189;DHT22;38162;45.926;13.608;2023-03-05T06:13:58;6.50;69.30
52189;DHT22;38162;45.926;13.608;2023-03-05T06:16:27;6.50;69.20
52189;DHT22;38162;45.926;13.608;2023-03-05T06:18:53;6.50;69.10
52189;DHT22;38162;45.926;13.608;2023-03-05T06:21:20;6.50;69.10
52189;DHT22;38162;45.926;13.608;2023-03-05T06:23:47;6.60;69.30
52189;DHT22;38162;45.926;13.608;2023-03-05T06:26:19;6.60;69.20
52189;DHT22;38162;45.926;13.608;2023-03-05T06:28:45;6.70;69.20
52189;DHT22;38162;45.926;13.608;2023-03-05T06:31:13;6.70;69.30
52189;DHT22;38162;45.926;13.608;2023-03-05T06:33:40;6.70;69.20
52189;DHT22;38162;45.926;13.608;2023-03-05T06:36:09;6.80;68.90
52189;DHT22;38162;45.926;13.608;2023-03-05T06:38:35;6.90;68.70
52189;DHT22;38162;45.926;13.608;2023-03-05T06:41:07;6.90;68.40
52189;DHT22;38162;45.926;13.608;2023-03-05T06:43:35;7.00;68.20
52189;DHT22;38162;45.926;13.608;2023-03-05T06:46:07;7.10;68.00
52189;DHT22;38162;45.926;13.608;2023-03-05T06:48:34;7.10;67.80
52189;DHT22;38162;45.926;13.608;2023-03-05T06:50:59;7.20;67.80
52189;DHT22;38162;45.926;13.608;2023-03-05T06:53:25;7.20;67.60
52189;DHT22;38162;45.926;13.608;2023-03-05T06:55:52;7.30;67.70
52189;DHT22;38162;45.926;13.608;2023-03-05T06:58:18;7.30;67.40
52189;DHT22;38162;45.926;13.608;2023-03-05T07:00:44;7.30;67.30
52189;DHT22;38162;45.926;13.608;2023-03-05T07:03:11;7.40;67.80
52189;DHT22;38162;45.926;13.608;2023-03-05T07:05:42;7.40;67.00
52189;DHT22;38162;45.926;13.608;2023-03-05T07:08:09;7.50;67.00
52189;DHT22;38162;45.926;13.608;2023-03-05T07:10:42;7.50;66.70
52189;DHT22;38162;45.926;13.608;2023-03-05T07:13:08;7.60;66.50
52189;DHT22;38162;45.926;13.608;2023-03-05T07:15:38;7.60;66.20
52189;DHT22;38162;45.926;13.608;2023-03-05T07:18:04;7.70;66.00
52189;DHT22;38162;45.926;13.608;2023-03-05T07:20:32;7.80;66.10
52189;DHT22;38162;45.926;13.608;2023-03-05T07:22:58;7.80;65.90
52189;DHT22;38162;45.926;13.608;2023-03-05T07:25:23;7.90;65.90
52189;DHT22;38162;45.926;13.608;2023-03-05T07:27:49;8.00;65.80
52189;DHT22;38162;45.926;13.608;2023-03-05T07:30:16;8.00;65.50
52189;DHT22;38162;45.926;13.608;2023-03-05T07:32:42;8.10;65.40
52189;DHT22;38162;45.926;13.608;2023-03-05T07:35:08;8.10;65.50
52189;DHT22;38162;45.926;13.608;2023-03-05T07:37:33;8.20;65.40
52189;DHT22;38162;45.926;13.608;2023-03-05T07:39:59;8.30;65.50
52189;DHT22;38162;45.926;13.608;2023-03-05T07:42:25;8.30;65.40
52189;DHT22;38162;45.926;13.608;2023-03-05T07:44:51;8.40;65.20
52189;DHT22;38162;45.926;13.608;2023-03-05T07:47:17;8.40;64.80
52189;DHT22;38162;45.926;13.608;2023-03-05T07:49:42;8.50;65.40
52189;DHT22;38162;45.926;13.608;2023-03-05T07:52:08;8.60;64.80
52189;DHT22;38162;45.926;13.608;2023-03-05T07:54:37;8.60;64.90
52189;DHT22;38162;45.926;13.608;2023-03-05T07:57:04;8.70;64.60
52189;DHT22;38162;45.926;13.608;2023-03-05T07:59:31;8.70;64.30
52189;DHT22;38162;45.926;13.608;2023-03-05T08:01:56;8.80;64.30
52189;DHT22;38162;45.926;13.608;2023-03-05T08:04:22;8.80;64.40
52189;DHT22;38162;45.926;13.608;2023-03-05T08:06:48;8.90;64.50
52189;DHT22;38162;45.926;13.608;2023-03-05T08:09:15;9.00;64.00
52189;DHT22;38162;45.926;13.608;2023-03-05T08:11:41;9.10;64.00
52189;DHT22;38162;45.926;13.608;2023-03-05T08:14:07;9.10;63.80
52189;DHT22;38162;45.926;13.608;2023-03-05T08:16:34;9.20;63.50
52189;DHT22;38162;45.926;13.608;2023-03-05T08:19:00;9.30;63.20
52189;DHT22;38162;45.926;13.608;2023-03-05T08:21:28;9.30;62.80
52189;DHT22;38162;45.926;13.608;2023-03-05T08:23:57;9.40;62.60
52189;DHT22;38162;45.926;13.608;2023-03-05T08:26:26;9.40;62.40
52189;DHT22;38162;45.926;13.608;2023-03-05T08:28:52;9.40;62.50
52189;DHT22;38162;45.926;13.608;2023-03-05T08:31:20;9.50;62.70
52189;DHT22;38162;45.926;13.608;2023-03-05T08:33:48;9.60;63.00
52189;DHT22;38162;45.926;13.608;2023-03-05T08:36:13;9.70;63.20
52189;DHT22;38162;45.926;13.608;2023-03-05T08:38:39;9.70;62.80
52189;DHT22;38162;45.926;13.608;2023-03-05T08:41:06;9.80;62.20
52189;DHT22;38162;45.926;13.608;2023-03-05T08:43:32;9.80;62.00
52189;DHT22;38162;45.926;13.608;2023-03-05T08:45:59;9.90;61.50
52189;DHT22;38162;45.926;13.608;2023-03-05T08:48:25;9.90;61.50
52189;DHT22;38162;45.926;13.608;2023-03-05T08:50:51;10.00;61.30
52189;DHT22;38162;45.926;13.608;2023-03-05T08:53:17;10.10;61.10
52189;DHT22;38162;45.926;13.608;2023-03-05T08:55:43;10.10;60.70
52189;DHT22;38162;45.926;13.608;2023-03-05T08:58:09;10.20;60.60
52189;DHT22;38162;45.926;13.608;2023-03-05T09:00:35;10.20;60.70
52189;DHT22;38162;45.926;13.608;2023-03-05T09:03:00;10.30;60.20
52189;DHT22;38162;45.926;13.608;2023-03-05T09:05:26;10.30;59.90
52189;DHT22;38162;45.926;13.608;2023-03-05T09:07:52;10.40;59.90
52189;DHT22;38162;45.926;13.608;2023-03-05T09:10:18;10.40;59.70
52189;DHT22;38162;45.926;13.608;2023-03-05T09:12:44;10.50;59.50
52189;DHT22;38162;45.926;13.608;2023-03-05T09:15:10;10.50;59.80
52189;DHT22;38162;45.926;13.608;2023-03-05T09:17:37;10.60;58.80
52189;DHT22;38162;45.926;13.608;2023-03-05T09:20:05;10.60;58.90
52189;DHT22;38162;45.926;13.608;2023-03-05T09:22:32;10.60;58.90
52189;DHT22;38162;45.926;13.608;2023-03-05T09:24:57;10.70;58.80
52189;DHT22;38162;45.926;13.608;2023-03-05T09:27:23;10.80;58.90
52189;DHT22;38162;45.926;13.608;2023-03-05T09:29:49;10.80;58.60
52189;DHT22;38162;45.926;13.608;2023-03-05T09:32:16;10.90;58.50
52189;DHT22;38162;45.926;13.608;2023-03-05T09:34:42;10.90;58.20
52189;DHT22;38162;45.926;13.608;2023-03-05T09:37:08;11.00;57.80
52189;DHT22;38162;45.926;13.608;2023-03-05T09:39:33;11.10;57.40
52189;DHT22;38162;45.926;13.608;2023-03-05T09:42:28;11.10;56.90
52189;DHT22;38162;45.926;13.608;2023-03-05T09:48:08;11.10;57.60
52189;DHT22;38162;45.926;13.608;2023-03-05T09:50:50;11.20;57.20
52189;DHT22;38162;45.926;13.608;2023-03-05T09:55:55;11.20;56.20
52189;DHT22;38162;45.926;13.608;2023-03-05T09:58:52;11.20;55.50
52189;DHT22;38162;45.926;13.608;2023-03-05T10:01:21;11.20;55.70
52189;DHT22;38162;45.926;13.608;2023-03-05T10:11:42;11.30;55.60
52189;DHT22;38162;45.926;13.608;2023-03-05T10:14:18;11.30;56.00
52189;DHT22;38162;45.926;13.608;2023-03-05T10:25:54;11.50;55.60
52189;DHT22;38162;45.926;13.608;2023-03-05T10:45:25;12.00;53.80
52189;DHT22;38162;45.926;13.608;2023-03-05T10:47:55;12.10;53.40
52189;DHT22;38162;45.926;13.608;2023-03-05T10:50:34;12.10;53.10
52189;DHT22;38162;45.926;13.608;2023-03-05T10:55:35;12.30;52.20
52189;DHT22;38162;45.926;13.608;2023-03-05T10:58:12;12.30;51.70
52189;DHT22;38162;45.926;13.608;2023-03-05T11:00:39;12.30;51.50
52189;DHT22;38162;45.926;13.608;2023-03-05T11:03:09;12.30;51.70
52189;DHT22;38162;45.926;13.608;2023-03-05T11:05:45;12.30;51.50
52189;DHT22;38162;45.926;13.608;2023-03-05T11:08:34;12.40;51.20
52189;DHT22;38162;45.926;13.608;2023-03-05T11:11:15;12.40;51.70
52189;DHT22;38162;45.926;13.608;2023-03-05T11:13:59;12.50;51.90
52189;DHT22;38162;45.926;13.608;2023-03-05T11:16:28;12.70;51.80
52189;DHT22;38162;45.926;13.608;2023-03-05T11:21:38;12.80;51.70
52189;DHT22;38162;45.926;13.608;2023-03-05T11:24:13;12.90;51.40
52189;DHT22;38162;45.926;13.608;2023-03-05T11:26:53;13.00;50.50
52189;DHT22;38162;45.926;13.608;2023-03-05T11:29:30;13.00;50.30
52189;DHT22;38162;45.926;13.608;2023-03-05T11:34:45;13.10;50.60
52189;DHT22;38162;45.926;13.608;2023-03-05T11:37:25;13.20;49.70
52189;DHT22;38162;45.926;13.608;2023-03-05T11:40:17;13.30;49.40
52189;DHT22;38162;45.926;13.608;2023-03-05T11:42:44;13.30;49.70
52189;DHT22;38162;45.926;13.608;2023-03-05T11:45:15;13.40;50.20
52189;DHT22;38162;45.926;13.608;2023-03-05T11:47:49;13.40;49.30
52189;DHT22;38162;45.926;13.608;2023-03-05T11:50:18;13.50;49.30
52189;DHT22;38162;45.926;13.608;2023-03-05T11:52:53;13.50;49.60
52189;DHT22;38162;45.926;13.608;2023-03-05T11:55:44;13.60;49.90
52189;DHT22;38162;45.926;13.608;2023-03-05T11:58:31;13.60;49.10
52189;DHT22;38162;45.926;13.608;2023-03-05T12:00:58;13.70;49.10
52189;DHT22;38162;45.926;13.608;2023-03-05T12:03:30;13.80;49.30
52189;DHT22;38162;45.926;13.608;2023-03-05T12:06:01;13.90;48.50
52189;DHT22;38162;45.926;13.608;2023-03-05T12:08:32;13.90;47.50
52189;DHT22;38162;45.926;13.608;2023-03-05T12:11:05;14.00;48.10
52189;DHT22;38162;45.926;13.608;2023-03-05T12:13:39;14.10;48.10
52189;DHT22;38162;45.926;13.608;2023-03-05T12:23:59;14.40;47.20
52189;DHT22;38162;45.926;13.608;2023-03-05T12:32:03;14.60;46.40
52189;DHT22;38162;45.926;13.608;2023-03-05T12:37:12;14.80;46.60
52189;DHT22;38162;45.926;13.608;2023-03-05T12:45:23;15.10;45.30
52189;DHT22;38162;45.926;13.608;2023-03-05T12:58:23;15.40;45.00
52189;DHT22;38162;45.926;13.608;2023-03-05T13:03:52;15.60;44.80
52189;DHT22;38162;45.926;13.608;2023-03-05T13:06:38;15.60;44.50
52189;DHT22;38162;45.926;13.608;2023-03-05T13:11:31;15.70;43.80
52189;DHT22;38162;45.926;13.608;2023-03-05T13:13:59;15.70;44.10
52189;DHT22;38162;45.926;13.608;2023-03-05T13:16:28;15.80;44.00
52189;DHT22;38162;45.926;13.608;2023-03-05T13:18:56;15.80;43.90
52189;DHT22;38162;45.926;13.608;2023-03-05T13:21:35;15.80;43.80
52189;DHT22;38162;45.926;13.608;2023-03-05T13:24:02;15.90;43.80
52189;DHT22;38162;45.926;13.608;2023-03-05T13:26:35;16.00;44.00
52189;DHT22;38162;45.926;13.608;2023-03-05T13:29:20;16.00;44.00
52189;DHT22;38162;45.926;13.608;2023-03-05T13:32:25;16.00;43.60
52189;DHT22;38162;45.926;13.608;2023-03-05T13:34:56;16.10;43.80
52189;DHT22;38162;45.926;13.608;2023-03-05T13:37:30;16.10;43.60
52189;DHT22;38162;45.926;13.608;2023-03-05T13:39:58;16.20;43.60
52189;DHT22;38162;45.926;13.608;2023-03-05T13:44:59;16.20;43.30
52189;DHT22;38162;45.926;13.608;2023-03-05T13:47:31;16.30;43.40
52189;DHT22;38162;45.926;13.608;2023-03-05T13:49:58;16.30;43.10
52189;DHT22;38162;45.926;13.608;2023-03-05T13:52:30;16.40;43.00
52189;DHT22;38162;45.926;13.608;2023-03-05T13:54:58;16.40;43.20
52189;DHT22;38162;45.926;13.608;2023-03-05T13:57:47;16.40;43.10
52189;DHT22;38162;45.926;13.608;2023-03-05T14:00:33;16.40;42.80
52189;DHT22;38162;45.926;13.608;2023-03-05T14:03:41;16.40;43.40
52189;DHT22;38162;45.926;13.608;2023-03-05T14:06:00;16.40;43.60
52189;DHT22;38162;45.926;13.608;2023-03-05T14:08:26;16.40;43.30
52189;DHT22;38162;45.926;13.608;2023-03-05T14:10:53;16.40;42.20
52189;DHT22;38162;45.926;13.608;2023-03-05T14:13:23;16.30;42.40
52189;DHT22;38162;45.926;13.608;2023-03-05T14:16:07;16.20;42.10
52189;DHT22;38162;45.926;13.608;2023-03-05T14:18:34;16.20;42.90
52189;DHT22;38162;45.926;13.608;2023-03-05T14:21:10;16.20;42.70
52189;DHT22;38162;45.926;13.608;2023-03-05T14:23:47;16.10;42.70
52189;DHT22;38162;45.926;13.608;2023-03-05T14:26:47;16.10;42.30
52189;DHT22;38162;45.926;13.608;2023-03-05T14:29:14;16.00;42.30
52189;DHT22;38162;45.926;13.608;2023-03-05T14:34:31;15.80;42.70
52189;DHT22;38162;45.926;13.608;2023-03-05T14:37:06;15.80;42.90
52189;DHT22;38162;45.926;13.608;2023-03-05T14:39:44;15.70;43.00
52189;DHT22;38162;45.926;13.608;2023-03-05T14:45:14;15.70;43.20
52189;DHT22;38162;45.926;13.608;2023-03-05T14:47:40;15.70;43.30
52189;DHT22;38162;45.926;13.608;2023-03-05T14:50:08;15.60;43.00
52189;DHT22;38162;45.926;13.608;2023-03-05T14:52:35;15.60;43.00
52189;DHT22;38162;45.926;13.608;2023-03-05T14:55:01;15.60;43.10
52189;DHT22;38162;45.926;13.608;2023-03-05T14:57:27;15.50;43.50
52189;DHT22;38162;45.926;13.608;2023-03-05T14:59:55;15.40;43.40
52189;DHT22;38162;45.926;13.608;2023-03-05T15:02:23;15.40;44.10
52189;DHT22;38162;45.926;13.608;2023-03-05T15:04:49;15.30;44.60
52189;DHT22;38162;45.926;13.608;2023-03-05T15:07:28;15.20;45.10
52189;DHT22;38162;45.926;13.608;2023-03-05T15:09:54;15.10;45.40
52189;DHT22;38162;45.926;13.608;2023-03-05T15:12:20;15.10;45.90
52189;DHT22;38162;45.926;13.608;2023-03-05T15:14:53;15.00;46.20
52189;DHT22;38162;45.926;13.608;2023-03-05T15:17:22;15.00;46.20
52189;DHT22;38162;45.926;13.608;2023-03-05T15:19:48;14.90;46.50
52189;DHT22;38162;45.926;13.608;2023-03-05T15:22:15;14.80;46.60
52189;DHT22;38162;45.926;13.608;2023-03-05T15:24:41;14.80;46.80
52189;DHT22;38162;45.926;13.608;2023-03-05T15:27:07;14.70;47.00
52189;DHT22;38162;45.926;13.608;2023-03-05T15:29:33;14.70;46.80
52189;DHT22;38162;45.926;13.608;2023-03-05T15:31:59;14.60;46.40
52189;DHT22;38162;45.926;13.608;2023-03-05T15:34:27;14.60;46.80
52189;DHT22;38162;45.926;13.608;2023-03-05T15:36:53;14.50;47.20
52189;DHT22;38162;45.926;13.608;2023-03-05T15:39:21;14.40;47.80
52189;DHT22;38162;45.926;13.608;2023-03-05T15:41:49;14.40;48.10
52189;DHT22;38162;45.926;13.608;2023-03-05T15:44:15;14.30;47.60
52189;DHT22;38162;45.926;13.608;2023-03-05T15:46:41;14.20;47.60
52189;DHT22;38162;45.926;13.608;2023-03-05T15:49:07;14.10;48.20
52189;DHT22;38162;45.926;13.608;2023-03-05T15:51:32;14.10;48.40
52189;DHT22;38162;45.926;13.608;2023-03-05T15:53:58;14.00;48.90
52189;DHT22;38162;45.926;13.608;2023-03-05T15:56:24;14.00;49.30
52189;DHT22;38162;45.926;13.608;2023-03-05T15:58:50;13.90;49.80
52189;DHT22;38162;45.926;13.608;2023-03-05T16:01:15;13.90;50.00
52189;DHT22;38162;45.926;13.608;2023-03-05T16:03:44;13.80;50.30
52189;DHT22;38162;45.926;13.608;2023-03-05T16:06:11;13.70;50.60
52189;DHT22;38162;45.926;13.608;2023-03-05T16:08:37;13.70;51.00
52189;DHT22;38162;45.926;13.608;2023-03-05T16:11:04;13.60;51.50
52189;DHT22;38162;45.926;13.608;2023-03-05T16:13:30;13.60;51.80
52189;DHT22;38162;45.926;13.608;2023-03-05T16:15:57;13.50;51.90
52189;DHT22;38162;45.926;13.608;2023-03-05T16:18:23;13.50;52.30
52189;DHT22;38162;45.926;13.608;2023-03-05T16:20:50;13.50;52.50
52189;DHT22;38162;45.926;13.608;2023-03-05T16:23:17;13.50;52.70
52189;DHT22;38162;45.926;13.608;2023-03-05T16:25:43;13.40;52.70
52189;DHT22;38162;45.926;13.608;2023-03-05T16:28:08;13.40;52.90
52189;DHT22;38162;45.926;13.608;2023-03-05T16:30:35;13.40;53.20
52189;DHT22;38162;45.926;13.608;2023-03-05T16:33:02;13.30;53.40
52189;DHT22;38162;45.926;13.608;2023-03-05T16:35:28;13.30;53.60
52189;DHT22;38162;45.926;13.608;2023-03-05T16:37:53;13.30;53.90
52189;DHT22;38162;45.926;13.608;2023-03-05T16:40:19;13.20;54.00
52189;DHT22;38162;45.926;13.608;2023-03-05T16:42:45;13.20;54.30
52189;DHT22;38162;45.926;13.608;2023-03-05T16:45:11;13.10;54.50
52189;DHT22;38162;45.926;13.608;2023-03-05T16:47:37;13.10;54.70
52189;DHT22;38162;45.926;13.608;2023-03-05T16:50:04;13.10;54.80
52189;DHT22;38162;45.926;13.608;2023-03-05T16:52:30;13.00;55.10
52189;DHT22;38162;45.926;13.608;2023-03-05T16:54:56;13.00;55.30
52189;DHT22;38162;45.926;13.608;2023-03-05T16:57:22;12.90;55.50
52189;DHT22;38162;45.926;13.608;2023-03-05T16:59:50;12.90;55.60
52189;DHT22;38162;45.926;13.608;2023-03-05T17:02:16;12.80;55.80
52189;DHT22;38162;45.926;13.608;2023-03-05T17:04:41;12.80;56.20
52189;DHT22;38162;45.926;13.608;2023-03-05T17:07:08;12.80;56.50